createdAt,value
2018-08-23T00:00:39.338Z,18.22
2018-08-23T00:01:39.336Z,18.11
2018-08-23T00:02:39.338Z,18.15
2018-08-23T00:03:39.574Z,18.22
2018-08-23T00:04:39.290Z,18.08
2018-08-23T00:05:39.320Z,18.08
2018-08-23T00:06:39.303Z,18.23
2018-08-23T00:07:39.304Z,18.13
2018-08-23T00:08:39.292Z,18.10
2018-08-23T00:09:39.280Z,18.04
2018-08-23T00:10:39.253Z,18.13
2018-08-23T00:11:39.341Z,18.04
2018-08-23T00:12:39.206Z,18.07
2018-08-23T00:13:39.211Z,18.08
2018-08-23T00:14:39.180Z,17.97
2018-08-23T00:15:39.167Z,18.03
2018-08-23T00:16:39.264Z,17.97
2018-08-23T00:17:39.154Z,17.92
2018-08-23T00:18:39.157Z,17.90
2018-08-23T00:19:39.124Z,17.86
2018-08-23T00:20:39.116Z,17.87
2018-08-23T00:21:39.111Z,17.86
2018-08-23T00:22:39.127Z,17.83
2018-08-23T00:23:39.089Z,17.82
2018-08-23T00:24:39.084Z,17.86
2018-08-23T00:25:39.067Z,17.83
2018-08-23T00:26:39.050Z,17.85
2018-08-23T00:27:39.075Z,17.72
2018-08-23T00:28:39.029Z,17.71
2018-08-23T00:29:39.023Z,17.70
2018-08-23T00:30:39.015Z,17.67
2018-08-23T00:31:39.038Z,17.65
2018-08-23T00:32:39.036Z,17.67
2018-08-23T00:33:38.976Z,17.59
2018-08-23T00:34:38.965Z,17.59
2018-08-23T00:35:38.960Z,17.54
2018-08-23T00:36:38.946Z,17.39
2018-08-23T00:37:39.206Z,17.34
2018-08-23T00:38:38.921Z,17.36
2018-08-23T00:39:38.927Z,17.33
2018-08-23T00:40:38.900Z,17.41
2018-08-23T00:41:38.895Z,17.31
2018-08-23T00:42:38.902Z,17.31
2018-08-23T00:43:38.872Z,17.29
2018-08-23T00:44:38.860Z,17.29
2018-08-23T00:45:38.848Z,17.29
2018-08-23T00:46:38.848Z,17.26
2018-08-23T00:47:38.865Z,17.26
2018-08-23T00:48:38.859Z,17.15
2018-08-23T00:49:38.806Z,17.22
2018-08-23T00:50:38.816Z,17.19
2018-08-23T00:51:38.780Z,17.09
2018-08-23T00:52:38.892Z,17.15
2018-08-23T00:53:38.762Z,17.04
2018-08-23T00:54:38.826Z,17.01
2018-08-23T00:55:38.744Z,16.96
2018-08-23T00:56:38.911Z,17.01
2018-08-23T00:57:38.751Z,16.96
2018-08-23T00:58:38.703Z,16.99
2018-08-23T00:59:38.693Z,16.86
2018-08-23T01:00:38.689Z,16.93
2018-08-23T01:01:38.677Z,16.93
2018-08-23T01:02:38.696Z,16.75
2018-08-23T01:03:38.656Z,16.72
2018-08-23T01:04:38.647Z,16.69
2018-08-23T01:05:38.631Z,16.66
2018-08-23T01:06:38.660Z,16.58
2018-08-23T01:07:38.615Z,16.47
2018-08-23T01:08:38.618Z,16.54
2018-08-23T01:09:38.610Z,16.47
2018-08-23T01:10:38.573Z,16.46
2018-08-23T01:11:38.562Z,16.36
2018-08-23T01:12:38.554Z,16.47
2018-08-23T01:13:38.566Z,16.33
2018-08-23T01:14:38.593Z,16.23
2018-08-23T01:15:38.592Z,16.32
2018-08-23T01:16:38.512Z,16.35
2018-08-23T01:17:38.519Z,16.32
2018-08-23T01:18:38.523Z,16.39
2018-08-23T01:19:38.475Z,16.36
2018-08-23T01:20:38.466Z,16.36
2018-08-23T01:21:38.480Z,16.32
2018-08-23T01:22:38.469Z,16.33
2018-08-23T01:23:38.433Z,16.35
2018-08-23T01:24:38.486Z,16.32
2018-08-23T01:25:38.442Z,16.24
2018-08-23T01:26:38.428Z,16.16
2018-08-23T01:27:38.397Z,16.23
2018-08-23T01:28:38.382Z,16.15
2018-08-23T01:29:38.391Z,16.21
2018-08-23T01:30:38.356Z,16.15
2018-08-23T01:31:38.345Z,16.13
2018-08-23T01:32:38.376Z,16.08
2018-08-23T01:33:38.379Z,16.10
2018-08-23T01:34:38.337Z,16.10
2018-08-23T01:35:38.308Z,16.13
2018-08-23T01:36:38.312Z,16.17
2018-08-23T01:37:38.364Z,16.21
2018-08-23T01:38:38.269Z,16.16
2018-08-23T01:39:38.283Z,16.15
2018-08-23T01:40:38.253Z,16.04
2018-08-23T01:41:38.238Z,16.04
2018-08-23T01:42:38.249Z,16.10
2018-08-23T01:43:38.240Z,16.04
2018-08-23T01:44:38.225Z,16.00
2018-08-23T01:45:38.261Z,15.94
2018-08-23T01:46:38.192Z,15.94
2018-08-23T01:47:38.368Z,15.84
2018-08-23T01:48:38.167Z,15.92
2018-08-23T01:49:38.170Z,15.88
2018-08-23T01:50:38.139Z,15.83
2018-08-23T01:51:38.127Z,15.94
2018-08-23T01:52:38.119Z,16.01
2018-08-23T01:53:38.117Z,15.95
2018-08-23T01:54:38.134Z,15.92
2018-08-23T01:55:38.099Z,15.98
2018-08-23T01:56:38.097Z,15.88
2018-08-23T01:57:38.069Z,15.91
2018-08-23T01:58:38.051Z,15.83
2018-08-23T01:59:38.046Z,15.86
2018-08-23T02:00:38.053Z,15.83
2018-08-23T02:01:38.042Z,15.79
2018-08-23T02:02:38.017Z,15.79
2018-08-23T02:03:38.008Z,15.82
2018-08-23T02:04:37.990Z,15.84
2018-08-23T02:05:37.979Z,15.75
2018-08-23T02:06:37.983Z,15.72
2018-08-23T02:07:37.953Z,15.68
2018-08-23T02:08:37.946Z,15.70
2018-08-23T02:09:37.940Z,15.65
2018-08-23T02:10:37.927Z,15.62
2018-08-23T02:11:37.935Z,15.55
2018-08-23T02:12:37.910Z,15.52
2018-08-23T02:13:37.893Z,15.55
2018-08-23T02:14:37.884Z,15.54
2018-08-23T02:15:37.874Z,15.52
2018-08-23T02:16:37.902Z,15.59
2018-08-23T02:17:37.847Z,15.57
2018-08-23T02:18:37.834Z,15.58
2018-08-23T02:19:37.824Z,15.57
2018-08-23T02:20:37.812Z,15.55
2018-08-23T02:21:37.828Z,15.59
2018-08-23T02:22:37.795Z,15.49
2018-08-23T02:23:37.784Z,15.49
2018-08-23T02:24:37.787Z,15.46
2018-08-23T02:25:37.758Z,15.29
2018-08-23T02:26:37.773Z,15.31
2018-08-23T02:27:37.740Z,15.33
2018-08-23T02:28:37.748Z,15.29
2018-08-23T02:29:37.714Z,15.25
2018-08-23T02:30:37.780Z,15.19
2018-08-23T02:31:37.722Z,15.25
2018-08-23T02:32:37.766Z,15.15
2018-08-23T02:33:37.688Z,15.19
2018-08-23T02:34:37.666Z,15.18
2018-08-23T02:35:37.654Z,15.18
2018-08-23T02:36:37.662Z,15.19
2018-08-23T02:37:37.640Z,15.18
2018-08-23T02:38:37.622Z,15.19
2018-08-23T02:39:37.616Z,15.18
2018-08-23T02:40:37.597Z,15.24
2018-08-23T02:41:37.610Z,15.14
2018-08-23T02:42:37.603Z,15.17
2018-08-23T02:43:37.565Z,15.17
2018-08-23T02:44:37.602Z,15.17
2018-08-23T02:45:37.563Z,15.07
2018-08-23T02:46:37.567Z,15.06
2018-08-23T02:47:37.526Z,14.96
2018-08-23T02:48:37.517Z,15.07
2018-08-23T02:49:37.510Z,15.14
2018-08-23T02:50:37.508Z,15.10
2018-08-23T02:51:37.532Z,15.10
2018-08-23T02:52:37.466Z,15.24
2018-08-23T02:53:37.464Z,15.21
2018-08-23T02:54:37.450Z,15.11
2018-08-23T02:55:37.439Z,15.19
2018-08-23T02:56:37.430Z,15.17
2018-08-23T02:57:37.430Z,15.14
2018-08-23T02:58:37.405Z,15.17
2018-08-23T02:59:37.395Z,15.21
2018-08-23T03:00:37.481Z,15.10
2018-08-23T03:01:37.369Z,15.02
2018-08-23T03:02:37.405Z,14.99
2018-08-23T03:03:37.350Z,14.99
2018-08-23T03:04:37.347Z,15.00
2018-08-23T03:05:37.334Z,15.02
2018-08-23T03:06:37.322Z,15.00
2018-08-23T03:07:37.327Z,14.92
2018-08-23T03:08:37.301Z,15.03
2018-08-23T03:09:37.284Z,15.00
2018-08-23T03:10:37.288Z,14.94
2018-08-23T03:11:38.172Z,14.92
2018-08-23T03:12:37.293Z,14.91
2018-08-23T03:13:37.258Z,14.89
2018-08-23T03:14:37.234Z,14.91
2018-08-23T03:15:37.263Z,14.84
2018-08-23T03:16:37.209Z,14.89
2018-08-23T03:17:37.353Z,15.00
2018-08-23T03:18:37.190Z,14.89
2018-08-23T03:19:37.272Z,14.92
2018-08-23T03:20:37.214Z,14.92
2018-08-23T03:21:37.156Z,14.92
2018-08-23T03:22:37.172Z,14.89
2018-08-23T03:23:37.136Z,14.91
2018-08-23T03:24:37.122Z,14.85
2018-08-23T03:25:37.119Z,14.86
2018-08-23T03:26:37.108Z,14.96
2018-08-23T03:27:37.097Z,14.99
2018-08-23T03:28:37.105Z,14.94
2018-08-23T03:29:37.068Z,14.92
2018-08-23T03:30:37.062Z,14.86
2018-08-23T03:31:37.051Z,14.86
2018-08-23T03:32:37.046Z,14.77
2018-08-23T03:33:37.045Z,14.81
2018-08-23T03:34:37.015Z,14.79
2018-08-23T03:35:37.011Z,14.77
2018-08-23T03:36:36.993Z,14.82
2018-08-23T03:37:36.998Z,14.82
2018-08-23T03:38:37.019Z,14.73
2018-08-23T03:39:36.968Z,14.88
2018-08-23T03:40:36.982Z,14.78
2018-08-23T03:41:36.943Z,14.77
2018-08-23T03:42:36.930Z,14.62
2018-08-23T03:43:36.938Z,14.65
2018-08-23T03:44:36.907Z,14.69
2018-08-23T03:45:36.904Z,14.62
2018-08-23T03:46:36.892Z,14.55
2018-08-23T03:47:36.889Z,14.58
2018-08-23T03:48:36.938Z,14.48
2018-08-23T03:49:36.868Z,14.59
2018-08-23T03:50:36.846Z,14.55
2018-08-23T03:51:36.838Z,14.59
2018-08-23T03:52:36.910Z,14.55
2018-08-23T03:53:36.847Z,14.62
2018-08-23T03:54:36.801Z,14.77
2018-08-23T03:55:36.804Z,14.77
2018-08-23T03:56:36.777Z,14.82
2018-08-23T03:57:36.797Z,14.78
2018-08-23T03:58:36.760Z,14.79
2018-08-23T03:59:36.768Z,14.77
2018-08-23T04:00:36.739Z,14.66
2018-08-23T04:01:36.722Z,14.65
2018-08-23T04:02:36.755Z,14.68
2018-08-23T04:03:36.709Z,14.69
2018-08-23T04:04:36.778Z,14.69
2018-08-23T04:05:36.830Z,14.68
2018-08-23T04:06:36.725Z,14.68
2018-08-23T04:07:36.663Z,14.73
2018-08-23T04:08:36.750Z,14.68
2018-08-23T04:09:36.782Z,14.73
2018-08-23T04:10:36.756Z,14.79
2018-08-23T04:11:36.771Z,14.66
2018-08-23T04:12:36.703Z,14.65
2018-08-23T04:13:36.592Z,14.59
2018-08-23T04:14:36.609Z,14.47
2018-08-23T04:15:36.575Z,14.53
2018-08-23T04:16:36.577Z,14.41
2018-08-23T04:17:36.575Z,14.33
2018-08-23T04:18:36.729Z,14.33
2018-08-23T04:19:36.573Z,14.35
2018-08-23T04:20:37.366Z,14.33
2018-08-23T04:21:36.528Z,14.30
2018-08-23T04:22:37.052Z,14.33
2018-08-23T04:23:36.600Z,14.30
2018-08-23T04:24:36.533Z,14.36
2018-08-23T04:25:36.846Z,14.53
2018-08-23T04:26:36.480Z,14.53
2018-08-23T04:27:36.850Z,14.54
2018-08-23T04:28:36.429Z,14.43
2018-08-23T04:29:36.591Z,14.48
2018-08-23T04:30:36.544Z,14.48
2018-08-23T04:31:36.723Z,14.41
2018-08-23T04:32:36.618Z,14.48
2018-08-23T04:33:36.490Z,14.41
2018-08-23T04:34:36.382Z,14.53
2018-08-23T04:35:36.409Z,14.53
2018-08-23T04:36:36.410Z,14.43
2018-08-23T04:37:36.406Z,14.51
2018-08-23T04:38:36.326Z,14.54
2018-08-23T04:39:36.551Z,14.55
2018-08-23T04:40:36.461Z,14.62
2018-08-23T04:41:36.303Z,14.69
2018-08-23T04:42:36.324Z,14.72
2018-08-23T04:43:36.294Z,14.65
2018-08-23T04:44:36.272Z,14.53
2018-08-23T04:45:36.269Z,14.54
2018-08-23T04:46:36.348Z,14.54
2018-08-23T04:47:36.308Z,14.58
2018-08-23T04:48:36.755Z,14.54
2018-08-23T04:49:36.233Z,14.50
2018-08-23T04:50:36.218Z,14.45
2018-08-23T04:51:36.291Z,14.43
2018-08-23T04:52:36.259Z,14.43
2018-08-23T04:53:36.209Z,14.50
2018-08-23T04:54:36.152Z,14.41
2018-08-23T04:55:36.616Z,14.37
2018-08-23T04:56:36.399Z,14.43
2018-08-23T04:57:36.221Z,14.37
2018-08-23T04:58:36.167Z,14.40
2018-08-23T04:59:36.150Z,14.41
2018-08-23T05:00:36.184Z,14.47
2018-08-23T05:01:36.077Z,14.50
2018-08-23T05:02:36.198Z,14.47
2018-08-23T05:03:36.117Z,14.50
2018-08-23T05:04:36.056Z,14.43
2018-08-23T05:05:36.044Z,14.45
2018-08-23T05:06:36.102Z,14.47
2018-08-23T05:07:36.207Z,14.47
2018-08-23T05:08:36.023Z,14.48
2018-08-23T05:09:36.359Z,14.55
2018-08-23T05:10:36.145Z,14.59
2018-08-23T05:11:35.983Z,14.72
2018-08-23T05:12:35.974Z,14.77
2018-08-23T05:13:35.953Z,14.86
2018-08-23T05:14:36.021Z,14.99
2018-08-23T05:15:35.958Z,14.96
2018-08-23T05:16:35.923Z,14.96
2018-08-23T05:17:36.094Z,15.06
2018-08-23T05:18:35.915Z,15.00
2018-08-23T05:19:35.970Z,15.00
2018-08-23T05:20:35.875Z,15.02
2018-08-23T05:21:35.965Z,14.96
2018-08-23T05:22:35.878Z,15.10
2018-08-23T05:23:35.873Z,15.09
2018-08-23T05:24:36.446Z,15.18
2018-08-23T05:25:35.904Z,15.11
2018-08-23T05:26:35.964Z,15.19
2018-08-23T05:27:35.923Z,15.29
2018-08-23T05:28:36.049Z,15.43
2018-08-23T05:29:35.944Z,15.55
2018-08-23T05:30:35.778Z,15.51
2018-08-23T05:31:35.857Z,15.67
2018-08-23T05:32:35.934Z,15.75
2018-08-23T05:33:35.830Z,15.75
2018-08-23T05:34:35.739Z,15.79
2018-08-23T05:35:35.772Z,15.76
2018-08-23T05:36:35.731Z,15.84
2018-08-23T05:37:36.063Z,15.97
2018-08-23T05:38:35.784Z,16.08
2018-08-23T05:39:35.679Z,16.12
2018-08-23T05:40:35.703Z,16.13
2018-08-23T05:41:35.645Z,16.16
2018-08-23T05:42:35.769Z,16.23
2018-08-23T05:43:35.751Z,16.20
2018-08-23T05:44:35.653Z,16.23
2018-08-23T05:45:35.774Z,16.29
2018-08-23T05:46:35.779Z,16.38
2018-08-23T05:47:35.592Z,16.41
2018-08-23T05:48:35.784Z,16.43
2018-08-23T05:49:35.555Z,16.43
2018-08-23T05:50:35.584Z,16.53
2018-08-23T05:51:35.556Z,16.54
2018-08-23T05:52:35.622Z,16.64
2018-08-23T05:53:35.620Z,16.56
2018-08-23T05:54:35.558Z,16.57
2018-08-23T05:55:35.506Z,16.61
2018-08-23T05:56:35.610Z,16.71
2018-08-23T05:57:35.947Z,16.66
2018-08-23T05:58:35.464Z,16.78
2018-08-23T05:59:35.550Z,16.78
2018-08-23T06:00:35.477Z,16.86
2018-08-23T06:01:35.459Z,16.83
2018-08-23T06:02:35.482Z,16.99
2018-08-23T06:03:35.440Z,16.99
2018-08-23T06:04:35.493Z,16.91
2018-08-23T06:05:35.520Z,17.01
2018-08-23T06:06:35.534Z,17.05
2018-08-23T06:07:35.392Z,17.08
2018-08-23T06:08:35.399Z,17.12
2018-08-23T06:09:35.336Z,17.12
2018-08-23T06:10:35.499Z,17.24
2018-08-23T06:11:35.342Z,17.34
2018-08-23T06:12:35.379Z,17.26
2018-08-23T06:13:35.395Z,17.36
2018-08-23T06:14:35.291Z,17.44
2018-08-23T06:15:35.372Z,17.46
2018-08-23T06:16:35.383Z,17.65
2018-08-23T06:17:35.262Z,17.57
2018-08-23T06:18:35.468Z,17.74
2018-08-23T06:19:35.278Z,17.76
2018-08-23T06:20:35.294Z,17.85
2018-08-23T06:21:35.264Z,17.92
2018-08-23T06:22:35.204Z,17.89
2018-08-23T06:23:35.212Z,18.00
2018-08-23T06:24:35.189Z,18.00
2018-08-23T06:25:35.173Z,18.03
2018-08-23T06:26:35.640Z,18.08
2018-08-23T06:27:35.408Z,18.15
2018-08-23T06:28:35.383Z,18.28
2018-08-23T06:29:35.162Z,18.33
2018-08-23T06:30:35.168Z,18.34
2018-08-23T06:31:35.130Z,18.35
2018-08-23T06:32:35.263Z,18.45
2018-08-23T06:33:35.322Z,18.53
2018-08-23T06:34:35.135Z,18.55
2018-08-23T06:35:35.154Z,18.63
2018-08-23T06:36:35.254Z,18.65
2018-08-23T06:37:35.070Z,18.68
2018-08-23T06:38:35.147Z,18.78
2018-08-23T06:39:35.185Z,18.73
2018-08-23T06:40:35.191Z,18.83
2018-08-23T06:41:35.001Z,18.84
2018-08-23T06:42:35.015Z,18.86
2018-08-23T06:43:35.077Z,18.93
2018-08-23T06:44:35.174Z,18.92
2018-08-23T06:45:35.001Z,18.99
2018-08-23T06:46:34.975Z,18.95
2018-08-23T06:47:34.959Z,19.07
2018-08-23T06:48:35.065Z,19.11
2018-08-23T06:49:34.985Z,19.18
2018-08-23T06:50:34.960Z,19.22
2018-08-23T06:51:34.906Z,19.19
2018-08-23T06:52:34.895Z,19.30
2018-08-23T06:53:34.900Z,19.33
2018-08-23T06:54:35.341Z,19.36
2018-08-23T06:55:35.022Z,19.40
2018-08-23T06:56:34.851Z,19.49
2018-08-23T06:57:35.049Z,19.52
2018-08-23T06:58:34.835Z,19.59
2018-08-23T06:59:34.820Z,19.55
2018-08-23T07:00:34.847Z,19.70
2018-08-23T07:01:34.853Z,19.73
2018-08-23T07:02:34.972Z,19.76
2018-08-23T07:03:34.858Z,19.79
2018-08-23T07:04:34.985Z,19.92
2018-08-23T07:05:34.940Z,20.13
2018-08-23T07:06:34.775Z,20.19
2018-08-23T07:07:34.742Z,20.47
2018-08-23T07:08:34.966Z,20.58
2018-08-23T07:09:34.766Z,20.70
2018-08-23T07:10:34.725Z,20.69
2018-08-23T07:11:34.779Z,20.88
2018-08-23T07:12:34.687Z,20.92
2018-08-23T07:13:34.658Z,21.03
2018-08-23T07:14:34.642Z,21.18
2018-08-23T07:15:34.639Z,21.22
2018-08-23T07:16:34.750Z,21.29
2018-08-23T07:17:34.808Z,21.22
2018-08-23T07:18:34.607Z,21.30
2018-08-23T07:19:34.706Z,21.25
2018-08-23T07:20:34.678Z,21.29
2018-08-23T07:21:34.634Z,21.32
2018-08-23T07:22:34.644Z,21.33
2018-08-23T07:23:34.596Z,21.35
2018-08-23T07:24:34.581Z,21.39
2018-08-23T07:25:34.602Z,21.27
2018-08-23T07:26:34.636Z,21.35
2018-08-23T07:27:34.539Z,21.39
2018-08-23T07:28:34.714Z,21.42
2018-08-23T07:29:34.490Z,21.50
2018-08-23T07:30:34.607Z,21.45
2018-08-23T07:31:34.573Z,21.40
2018-08-23T07:32:34.514Z,21.42
2018-08-23T07:33:34.528Z,21.46
2018-08-23T07:34:34.561Z,21.57
2018-08-23T07:35:34.571Z,21.54
2018-08-23T07:36:34.420Z,21.64
2018-08-23T07:37:34.426Z,21.64
2018-08-23T07:38:34.540Z,21.69
2018-08-23T07:39:34.617Z,21.62
2018-08-23T07:40:34.377Z,21.70
2018-08-23T07:41:34.434Z,21.72
2018-08-23T07:42:34.350Z,21.72
2018-08-23T07:43:34.361Z,21.82
2018-08-23T07:44:34.814Z,21.83
2018-08-23T07:45:34.333Z,21.83
2018-08-23T07:46:34.343Z,21.93
2018-08-23T07:47:34.296Z,22.04
2018-08-23T07:48:34.420Z,22.04
2018-08-23T07:49:34.290Z,22.07
2018-08-23T07:50:34.274Z,22.04
2018-08-23T07:51:34.238Z,22.10
2018-08-23T07:52:34.373Z,22.11
2018-08-23T07:53:34.228Z,22.15
2018-08-23T07:54:34.305Z,22.23
2018-08-23T07:55:34.218Z,22.26
2018-08-23T07:56:34.202Z,22.22
2018-08-23T07:57:34.190Z,22.17
2018-08-23T07:58:34.175Z,22.15
2018-08-23T07:59:34.208Z,22.26
2018-08-23T08:00:34.257Z,22.18
2018-08-23T08:01:34.255Z,22.26
2018-08-23T08:02:34.284Z,22.13
2018-08-23T08:03:34.133Z,22.14
2018-08-23T08:04:34.152Z,22.20
2018-08-23T08:05:34.174Z,22.22
2018-08-23T08:06:34.293Z,22.28
2018-08-23T08:07:34.119Z,22.32
2018-08-23T08:08:34.076Z,22.30
2018-08-23T08:09:34.072Z,22.33
2018-08-23T08:10:34.091Z,22.50
2018-08-23T08:11:34.037Z,22.53
2018-08-23T08:12:34.038Z,22.53
2018-08-23T08:13:34.090Z,22.65
2018-08-23T08:14:34.014Z,22.68
2018-08-23T08:15:34.027Z,22.69
2018-08-23T08:16:34.021Z,22.75
2018-08-23T08:17:34.056Z,22.81
2018-08-23T08:18:33.982Z,22.80
2018-08-23T08:19:33.971Z,22.94
2018-08-23T08:20:33.997Z,23.02
2018-08-23T08:21:34.024Z,23.12
2018-08-23T08:22:33.964Z,23.31
2018-08-23T08:23:33.921Z,23.32
2018-08-23T08:24:33.910Z,23.31
2018-08-23T08:25:33.922Z,23.46
2018-08-23T08:26:33.941Z,23.61
2018-08-23T08:27:33.927Z,23.56
2018-08-23T08:28:33.901Z,23.69
2018-08-23T08:29:33.926Z,23.84
2018-08-23T08:30:33.901Z,23.81
2018-08-23T08:31:33.881Z,23.86
2018-08-23T08:32:33.837Z,23.83
2018-08-23T08:33:33.961Z,23.96
2018-08-23T08:34:33.787Z,24.06
2018-08-23T08:35:33.779Z,24.11
2018-08-23T08:36:33.778Z,24.13
2018-08-23T08:37:33.892Z,24.11
2018-08-23T08:38:33.794Z,24.03
2018-08-23T08:39:33.754Z,24.10
2018-08-23T08:40:33.736Z,24.10
2018-08-23T08:41:33.707Z,24.13
2018-08-23T08:42:33.759Z,24.11
2018-08-23T08:43:33.761Z,24.20
2018-08-23T08:44:33.736Z,24.30
2018-08-23T08:45:33.687Z,24.36
2018-08-23T08:46:33.670Z,24.45
2018-08-23T08:47:33.731Z,24.20
2018-08-23T08:48:33.728Z,24.30
2018-08-23T08:49:33.657Z,24.50
2018-08-23T08:50:33.692Z,24.55
2018-08-23T08:51:33.664Z,24.53
2018-08-23T08:52:33.614Z,24.39
2018-08-23T08:53:33.624Z,24.47
2018-08-23T08:54:33.579Z,24.55
2018-08-23T08:55:33.564Z,24.60
2018-08-23T08:56:33.575Z,24.76
2018-08-23T08:57:33.630Z,24.55
2018-08-23T08:58:33.542Z,24.77
2018-08-23T08:59:33.570Z,24.99
2018-08-23T09:00:33.512Z,25.10
2018-08-23T09:01:33.504Z,25.22
2018-08-23T09:02:33.503Z,25.31
2018-08-23T09:03:33.552Z,25.23
2018-08-23T09:04:33.538Z,25.06
2018-08-23T09:05:33.689Z,25.16
2018-08-23T09:06:33.477Z,25.28
2018-08-23T09:07:33.456Z,25.36
2018-08-23T09:08:33.428Z,25.44
2018-08-23T09:09:33.505Z,25.26
2018-08-23T09:10:33.434Z,25.28
2018-08-23T09:11:33.471Z,25.43
2018-08-23T09:12:33.419Z,25.48
2018-08-23T09:13:33.424Z,25.59
2018-08-23T09:14:33.406Z,25.63
2018-08-23T09:15:33.380Z,25.66
2018-08-23T09:16:33.427Z,25.70
2018-08-23T09:17:33.400Z,25.65
2018-08-23T09:18:33.393Z,25.63
2018-08-23T09:19:33.356Z,25.63
2018-08-23T09:20:33.463Z,25.68
2018-08-23T09:21:33.335Z,25.87
2018-08-23T09:22:33.275Z,25.85
2018-08-23T09:23:33.361Z,25.75
2018-08-23T09:24:33.435Z,25.80
2018-08-23T09:25:33.335Z,25.81
2018-08-23T09:26:33.338Z,25.91
2018-08-23T09:27:33.314Z,26.05
2018-08-23T09:28:33.220Z,26.15
2018-08-23T09:29:33.242Z,26.16
2018-08-23T09:30:33.314Z,26.38
2018-08-23T09:31:33.192Z,26.44
2018-08-23T09:32:33.195Z,26.51
2018-08-23T09:33:33.214Z,26.41
2018-08-23T09:34:33.193Z,26.36
2018-08-23T09:35:33.745Z,26.21
2018-08-23T09:36:33.148Z,26.02
2018-08-23T09:37:33.132Z,25.78
2018-08-23T09:38:33.138Z,25.55
2018-08-23T09:39:33.180Z,25.54
2018-08-23T09:40:33.195Z,25.47
2018-08-23T09:41:33.103Z,25.46
2018-08-23T09:42:33.201Z,25.66
2018-08-23T09:43:33.066Z,25.69
2018-08-23T09:44:33.141Z,25.78
2018-08-23T09:45:33.092Z,25.77
2018-08-23T09:46:33.141Z,25.75
2018-08-23T09:47:33.023Z,25.95
2018-08-23T09:48:33.109Z,26.22
2018-08-23T09:49:33.018Z,26.22
2018-08-23T09:50:32.992Z,26.15
2018-08-23T09:51:33.028Z,26.36
2018-08-23T09:52:33.015Z,26.44
2018-08-23T09:53:33.261Z,26.59
2018-08-23T09:54:32.988Z,26.60
2018-08-23T09:55:32.982Z,26.77
2018-08-23T09:56:33.022Z,26.83
2018-08-23T09:57:32.912Z,26.75
2018-08-23T09:58:32.946Z,26.63
2018-08-23T09:59:33.258Z,26.78
2018-08-23T10:00:32.939Z,26.37
2018-08-23T10:01:32.923Z,26.23
2018-08-23T10:02:32.901Z,26.09
2018-08-23T10:03:32.911Z,26.15
2018-08-23T10:04:32.890Z,26.21
2018-08-23T10:05:32.968Z,26.40
2018-08-23T10:06:32.858Z,26.56
2018-08-23T10:07:32.903Z,26.70
2018-08-23T10:08:32.795Z,26.81
2018-08-23T10:09:33.072Z,26.88
2018-08-23T10:10:32.837Z,26.90
2018-08-23T10:11:33.240Z,26.93
2018-08-23T10:12:32.797Z,26.96
2018-08-23T10:13:32.765Z,27.02
2018-08-23T10:14:32.752Z,27.17
2018-08-23T10:15:32.849Z,27.22
2018-08-23T10:16:32.709Z,27.14
2018-08-23T10:17:32.806Z,27.26
2018-08-23T10:18:32.714Z,27.21
2018-08-23T10:19:32.707Z,27.22
2018-08-23T10:20:32.715Z,27.14
2018-08-23T10:21:32.713Z,27.00
2018-08-23T10:22:32.788Z,27.14
2018-08-23T10:23:32.743Z,27.11
2018-08-23T10:24:32.639Z,27.08
2018-08-23T10:25:32.747Z,27.08
2018-08-23T10:26:32.673Z,27.25
2018-08-23T10:27:32.638Z,27.35
2018-08-23T10:28:32.590Z,27.51
2018-08-23T10:29:32.727Z,27.58
2018-08-23T10:30:32.606Z,27.51
2018-08-23T10:31:32.678Z,27.55
2018-08-23T10:32:32.591Z,27.74
2018-08-23T10:33:32.560Z,27.63
2018-08-23T10:34:32.538Z,27.65
2018-08-23T10:35:32.814Z,27.54
2018-08-23T10:36:32.761Z,27.65
2018-08-23T10:37:32.741Z,27.64
2018-08-23T10:38:32.491Z,27.83
2018-08-23T10:39:32.462Z,27.74
2018-08-23T10:40:32.572Z,27.73
2018-08-23T10:41:32.683Z,27.86
2018-08-23T10:42:32.433Z,27.82
2018-08-23T10:43:32.501Z,27.98
2018-08-23T10:44:32.851Z,28.00
2018-08-23T10:45:32.457Z,27.80
2018-08-23T10:46:32.427Z,27.77
2018-08-23T10:47:32.716Z,27.82
2018-08-23T10:48:33.134Z,28.02
2018-08-23T10:49:32.471Z,28.17
2018-08-23T10:50:32.503Z,28.48
2018-08-23T10:51:32.514Z,28.59
2018-08-23T10:52:32.511Z,28.54
2018-08-23T10:53:32.353Z,28.69
2018-08-23T10:54:32.734Z,28.64
2018-08-23T10:55:32.343Z,28.14
2018-08-23T10:56:32.347Z,27.96
2018-08-23T10:57:32.404Z,27.92
2018-08-23T10:58:32.300Z,27.90
2018-08-23T10:59:32.711Z,27.65
2018-08-23T11:00:32.279Z,27.54
2018-08-23T11:01:32.245Z,27.60
2018-08-23T11:02:32.247Z,27.82
2018-08-23T11:03:32.231Z,28.11
2018-08-23T11:04:32.290Z,28.26
2018-08-23T11:05:32.200Z,28.44
2018-08-23T11:06:32.206Z,28.59
2018-08-23T11:07:32.189Z,28.63
2018-08-23T11:08:32.183Z,28.42
2018-08-23T11:09:32.292Z,28.42
2018-08-23T11:10:32.234Z,28.48
2018-08-23T11:11:32.142Z,28.35
2018-08-23T11:12:32.137Z,28.12
2018-08-23T11:13:32.177Z,27.96
2018-08-23T11:14:32.187Z,27.96
2018-08-23T11:15:32.205Z,28.08
2018-08-23T11:16:32.082Z,28.12
2018-08-23T11:17:32.255Z,28.23
2018-08-23T11:18:32.070Z,28.29
2018-08-23T11:19:32.056Z,28.49
2018-08-23T11:20:32.092Z,28.59
2018-08-23T11:21:32.191Z,28.56
2018-08-23T11:22:32.107Z,28.59
2018-08-23T11:23:32.272Z,28.62
2018-08-23T11:24:32.151Z,28.72
2018-08-23T11:25:32.076Z,28.78
2018-08-23T11:26:32.097Z,28.79
2018-08-23T11:27:32.002Z,29.08
2018-08-23T11:28:32.000Z,29.08
2018-08-23T11:29:32.078Z,28.94
2018-08-23T11:30:32.006Z,28.81
2018-08-23T11:31:32.024Z,28.86
2018-08-23T11:32:31.924Z,29.16
2018-08-23T11:33:31.919Z,29.42
2018-08-23T11:34:32.105Z,29.81
2018-08-23T11:35:31.973Z,29.97
2018-08-23T11:36:32.000Z,30.03
2018-08-23T11:37:31.897Z,30.24
2018-08-23T11:38:31.909Z,30.57
2018-08-23T11:39:31.852Z,30.44
2018-08-23T11:40:31.922Z,30.69
2018-08-23T11:41:31.850Z,31.07
2018-08-23T11:42:31.990Z,31.39
2018-08-23T11:43:31.824Z,31.62
2018-08-23T11:44:31.807Z,31.66
2018-08-23T11:45:31.838Z,31.70
2018-08-23T11:46:31.857Z,31.76
2018-08-23T11:47:31.798Z,31.73
2018-08-23T11:48:31.792Z,32.31
2018-08-23T11:49:31.869Z,32.65
2018-08-23T11:50:31.867Z,32.93
2018-08-23T11:51:31.738Z,32.89
2018-08-23T11:52:31.940Z,33.07
2018-08-23T11:53:32.008Z,33.14
2018-08-23T11:54:31.827Z,32.74
2018-08-23T11:55:31.699Z,32.19
2018-08-23T11:56:31.690Z,32.04
2018-08-23T11:57:31.687Z,32.52
2018-08-23T11:58:31.879Z,32.64
2018-08-23T11:59:31.820Z,32.86
2018-08-23T12:00:31.657Z,32.89
2018-08-23T12:01:31.905Z,32.45
2018-08-23T12:02:31.638Z,31.74
2018-08-23T12:03:31.679Z,31.24
2018-08-23T12:04:31.678Z,30.77
2018-08-23T12:05:31.815Z,31.20
2018-08-23T12:06:32.309Z,31.56
2018-08-23T12:07:32.019Z,31.09
2018-08-23T12:08:31.941Z,30.27
2018-08-23T12:09:31.583Z,30.70
2018-08-23T12:10:31.728Z,31.02
2018-08-23T12:11:32.278Z,30.13
2018-08-23T12:12:31.679Z,30.55
2018-08-23T12:13:31.566Z,30.94
2018-08-23T12:14:31.567Z,31.25
2018-08-23T12:15:31.664Z,31.58
2018-08-23T12:16:31.662Z,31.39
2018-08-23T12:17:31.794Z,31.17
2018-08-23T12:18:31.541Z,31.43
2018-08-23T12:19:31.557Z,31.22
2018-08-23T12:20:31.465Z,30.50
2018-08-23T12:21:31.458Z,30.70
2018-08-23T12:22:31.460Z,30.50
2018-08-23T12:23:31.439Z,31.14
2018-08-23T12:24:31.478Z,30.35
2018-08-23T12:25:31.567Z,29.76
2018-08-23T12:26:31.493Z,29.31
2018-08-23T12:27:31.422Z,29.07
2018-08-23T12:28:31.401Z,29.44
2018-08-23T12:29:31.479Z,30.47
2018-08-23T12:30:31.568Z,31.29
2018-08-23T12:31:31.374Z,31.03
2018-08-23T12:32:31.396Z,30.02
2018-08-23T12:33:31.358Z,29.68
2018-08-23T12:34:31.359Z,30.25
2018-08-23T12:35:31.381Z,30.53
2018-08-23T12:36:31.322Z,30.59
2018-08-23T12:37:31.447Z,30.69
2018-08-23T12:38:31.414Z,30.70
2018-08-23T12:39:31.320Z,30.83
2018-08-23T12:40:31.396Z,31.27
2018-08-23T12:41:31.270Z,31.99
2018-08-23T12:42:31.264Z,32.46
2018-08-23T12:43:31.265Z,33.24
2018-08-23T12:44:31.248Z,33.80
2018-08-23T12:45:31.330Z,33.55
2018-08-23T12:46:31.316Z,34.13
2018-08-23T12:47:31.213Z,34.33
2018-08-23T12:48:31.193Z,33.95
2018-08-23T12:49:31.292Z,34.18
2018-08-23T12:50:31.182Z,34.70
2018-08-23T12:51:31.319Z,35.02
2018-08-23T12:52:31.156Z,34.92